sensor_id;sensor_type;location;lat;lon;timestamp;P1;durP1;ratioP1;P2;durP2;ratioP2
12986;SDS011;58897;51.960;5.582;2022-08-01T00:00:01;5.27;;;3.13;;
12986;SDS011;58897;51.960;5.582;2022-08-01T00:02:30;6.27;;;3.40;;
12986;SDS011;58897;51.960;5.582;2022-08-01T00:04:57;5.37;;;3.60;;
12986;SDS011;58897;51.960;5.582;2022-08-01T00:07:23;6.80;;;3.50;;
12986;SDS011;58897;51.960;5.582;2022-08-01T00:09:50;6.73;;;4.00;;
12986;SDS011;58897;51.960;5.582;2022-08-01T00:12:16;5.10;;;3.77;;
12986;SDS011;58897;51.960;5.582;2022-08-01T00:14:43;7.40;;;3.67;;
12986;SDS011;58897;51.960;5.582;2022-08-01T00:17:09;3.70;;;2.97;;
12986;SDS011;58897;51.960;5.582;2022-08-01T00:19:35;5.57;;;3.77;;
12986;SDS011;58897;51.960;5.582;2022-08-01T00:22:02;4.80;;;2.90;;
12986;SDS011;58897;51.960;5.582;2022-08-01T00:24:29;5.03;;;3.23;;
12986;SDS011;58897;51.960;5.582;2022-08-01T00:26:55;5.23;;;3.53;;
12986;SDS011;58897;51.960;5.582;2022-08-01T00:29:22;6.83;;;3.23;;
12986;SDS011;58897;51.960;5.582;2022-08-01T00:32:08;7.20;;;3.83;;
12986;SDS011;58897;51.960;5.582;2022-08-01T00:34:35;7.17;;;3.23;;
12986;SDS011;58897;51.960;5.582;2022-08-01T00:37:01;5.70;;;3.30;;
12986;SDS011;58897;51.960;5.582;2022-08-01T00:39:27;5.40;;;3.43;;
12986;SDS011;58897;51.960;5.582;2022-08-01T00:41:54;4.73;;;3.13;;
12986;SDS011;58897;51.960;5.582;2022-08-01T00:44:25;5.43;;;3.67;;
12986;SDS011;58897;51.960;5.582;2022-08-01T00:46:52;6.67;;;4.10;;
12986;SDS011;58897;51.960;5.582;2022-08-01T00:49:19;7.47;;;3.83;;
12986;SDS011;58897;51.960;5.582;2022-08-01T00:51:45;5.53;;;3.53;;
12986;SDS011;58897;51.960;5.582;2022-08-01T00:54:11;5.70;;;3.53;;
12986;SDS011;58897;51.960;5.582;2022-08-01T00:56:41;5.60;;;3.47;;
12986;SDS011;58897;51.960;5.582;2022-08-01T00:59:08;5.90;;;3.80;;
12986;SDS011;58897;51.960;5.582;2022-08-01T01:01:39;5.77;;;3.47;;
12986;SDS011;58897;51.960;5.582;2022-08-01T01:04:11;7.70;;;4.20;;
12986;SDS011;58897;51.960;5.582;2022-08-01T01:10:03;7.23;;;4.17;;
12986;SDS011;58897;51.960;5.582;2022-08-01T01:15:36;7.00;;;3.97;;
12986;SDS011;58897;51.960;5.582;2022-08-01T01:18:17;8.53;;;4.47;;
12986;SDS011;58897;51.960;5.582;2022-08-01T01:30:16;9.33;;;3.97;;
12986;SDS011;58897;51.960;5.582;2022-08-01T01:32:45;8.30;;;4.30;;
12986;SDS011;58897;51.960;5.582;2022-08-01T01:35:15;8.70;;;5.23;;
12986;SDS011;58897;51.960;5.582;2022-08-01T01:37:47;10.53;;;5.50;;
12986;SDS011;58897;51.960;5.582;2022-08-01T01:40:16;8.77;;;5.67;;
12986;SDS011;58897;51.960;5.582;2022-08-01T01:42:44;9.10;;;4.93;;
12986;SDS011;58897;51.960;5.582;2022-08-01T01:45:12;6.80;;;4.07;;
12986;SDS011;58897;51.960;5.582;2022-08-01T01:47:40;8.93;;;5.13;;
12986;SDS011;58897;51.960;5.582;2022-08-01T01:50:08;8.83;;;4.57;;
12986;SDS011;58897;51.960;5.582;2022-08-01T01:52:36;7.93;;;5.27;;
12986;SDS011;58897;51.960;5.582;2022-08-01T01:55:06;7.83;;;5.00;;
12986;SDS011;58897;51.960;5.582;2022-08-01T01:57:38;8.77;;;4.80;;
12986;SDS011;58897;51.960;5.582;2022-08-01T02:00:07;7.63;;;5.13;;
12986;SDS011;58897;51.960;5.582;2022-08-01T02:02:36;7.03;;;4.83;;
12986;SDS011;58897;51.960;5.582;2022-08-01T02:05:04;7.27;;;4.60;;
12986;SDS011;58897;51.960;5.582;2022-08-01T02:07:32;9.63;;;5.70;;
12986;SDS011;58897;51.960;5.582;2022-08-01T02:10:01;8.20;;;5.13;;
12986;SDS011;58897;51.960;5.582;2022-08-01T02:12:29;9.73;;;5.37;;
12986;SDS011;58897;51.960;5.582;2022-08-01T02:15:00;10.77;;;6.20;;
12986;SDS011;58897;51.960;5.582;2022-08-01T02:17:29;8.43;;;4.83;;
12986;SDS011;58897;51.960;5.582;2022-08-01T02:19:57;9.07;;;5.10;;
12986;SDS011;58897;51.960;5.582;2022-08-01T02:22:26;7.77;;;5.13;;
12986;SDS011;58897;51.960;5.582;2022-08-01T02:25:01;9.37;;;5.03;;
12986;SDS011;58897;51.960;5.582;2022-08-01T02:28:35;11.50;;;6.00;;
12986;SDS011;58897;51.960;5.582;2022-08-01T02:30:35;8.07;;;5.10;;
12986;SDS011;58897;51.960;5.582;2022-08-01T02:33:18;10.03;;;5.40;;
12986;SDS011;58897;51.960;5.582;2022-08-01T02:35:48;9.27;;;5.53;;
12986;SDS011;58897;51.960;5.582;2022-08-01T02:38:40;7.93;;;4.67;;
12986;SDS011;58897;51.960;5.582;2022-08-01T02:41:10;9.80;;;5.27;;
12986;SDS011;58897;51.960;5.582;2022-08-01T02:43:40;11.27;;;5.00;;
12986;SDS011;58897;51.960;5.582;2022-08-01T02:46:29;12.53;;;6.20;;
12986;SDS011;58897;51.960;5.582;2022-08-01T02:49:01;9.00;;;5.40;;
12986;SDS011;58897;51.960;5.582;2022-08-01T02:51:29;10.80;;;5.53;;
12986;SDS011;58897;51.960;5.582;2022-08-01T02:53:57;8.37;;;5.30;;
12986;SDS011;58897;51.960;5.582;2022-08-01T02:56:27;10.87;;;5.83;;
12986;SDS011;58897;51.960;5.582;2022-08-01T02:59:10;10.97;;;6.00;;
12986;SDS011;58897;51.960;5.582;2022-08-01T03:01:40;11.57;;;5.50;;
12986;SDS011;58897;51.960;5.582;2022-08-01T03:04:09;9.40;;;4.93;;
12986;SDS011;58897;51.960;5.582;2022-08-01T03:06:37;8.80;;;5.70;;
12986;SDS011;58897;51.960;5.582;2022-08-01T03:09:05;10.03;;;5.63;;
12986;SDS011;58897;51.960;5.582;2022-08-01T03:11:34;12.03;;;5.77;;
12986;SDS011;58897;51.960;5.582;2022-08-01T03:14:04;13.20;;;5.83;;
12986;SDS011;58897;51.960;5.582;2022-08-01T03:16:33;9.53;;;5.33;;
12986;SDS011;58897;51.960;5.582;2022-08-01T03:19:02;9.87;;;6.00;;
12986;SDS011;58897;51.960;5.582;2022-08-01T03:21:30;11.07;;;5.93;;
12986;SDS011;58897;51.960;5.582;2022-08-01T03:23:59;10.40;;;5.63;;
12986;SDS011;58897;51.960;5.582;2022-08-01T03:26:27;9.03;;;5.33;;
12986;SDS011;58897;51.960;5.582;2022-08-01T03:28:57;11.33;;;6.00;;
12986;SDS011;58897;51.960;5.582;2022-08-01T03:31:27;11.27;;;5.90;;
12986;SDS011;58897;51.960;5.582;2022-08-01T03:33:56;8.67;;;5.53;;
12986;SDS011;58897;51.960;5.582;2022-08-01T03:36:25;10.33;;;5.83;;
12986;SDS011;58897;51.960;5.582;2022-08-01T03:38:56;11.13;;;5.30;;
12986;SDS011;58897;51.960;5.582;2022-08-01T03:41:26;8.23;;;5.10;;
12986;SDS011;58897;51.960;5.582;2022-08-01T03:44:01;9.60;;;5.77;;
12986;SDS011;58897;51.960;5.582;2022-08-01T03:46:42;11.10;;;6.00;;
12986;SDS011;58897;51.960;5.582;2022-08-01T03:49:13;7.33;;;4.53;;
12986;SDS011;58897;51.960;5.582;2022-08-01T03:51:44;8.20;;;4.70;;
12986;SDS011;58897;51.960;5.582;2022-08-01T03:54:14;8.67;;;5.43;;
12986;SDS011;58897;51.960;5.582;2022-08-01T03:56:43;7.63;;;4.87;;
12986;SDS011;58897;51.960;5.582;2022-08-01T03:59:12;12.00;;;5.80;;
12986;SDS011;58897;51.960;5.582;2022-08-01T04:01:42;9.07;;;4.27;;
12986;SDS011;58897;51.960;5.582;2022-08-01T04:04:09;9.03;;;5.13;;
12986;SDS011;58897;51.960;5.582;2022-08-01T04:06:39;7.77;;;4.93;;
12986;SDS011;58897;51.960;5.582;2022-08-01T04:09:07;8.70;;;5.00;;
12986;SDS011;58897;51.960;5.582;2022-08-01T04:11:39;7.40;;;4.60;;
12986;SDS011;58897;51.960;5.582;2022-08-01T04:14:07;10.87;;;5.20;;
12986;SDS011;58897;51.960;5.582;2022-08-01T04:16:34;8.90;;;4.20;;
12986;SDS011;58897;51.960;5.582;2022-08-01T04:19:01;9.90;;;5.73;;
12986;SDS011;58897;51.960;5.582;2022-08-01T04:21:27;7.77;;;5.23;;
12986;SDS011;58897;51.960;5.582;2022-08-01T04:23:58;7.47;;;4.70;;
12986;SDS011;58897;51.960;5.582;2022-08-01T04:26:29;7.80;;;5.10;;
12986;SDS011;58897;51.960;5.582;2022-08-01T04:28:58;10.13;;;5.87;;
12986;SDS011;58897;51.960;5.582;2022-08-01T04:31:28;8.83;;;5.77;;
12986;SDS011;58897;51.960;5.582;2022-08-01T04:33:57;10.57;;;6.00;;
12986;SDS011;58897;51.960;5.582;2022-08-01T04:36:26;10.00;;;5.40;;
12986;SDS011;58897;51.960;5.582;2022-08-01T04:38:56;9.33;;;5.17;;
12986;SDS011;58897;51.960;5.582;2022-08-01T04:41:26;8.40;;;4.90;;
12986;SDS011;58897;51.960;5.582;2022-08-01T04:43:53;7.50;;;5.00;;
12986;SDS011;58897;51.960;5.582;2022-08-01T04:46:21;10.10;;;5.77;;
12986;SDS011;58897;51.960;5.582;2022-08-01T04:48:48;8.10;;;5.03;;
12986;SDS011;58897;51.960;5.582;2022-08-01T04:51:16;9.50;;;5.43;;
12986;SDS011;58897;51.960;5.582;2022-08-01T04:53:44;8.97;;;5.53;;
12986;SDS011;58897;51.960;5.582;2022-08-01T04:56:12;9.27;;;5.37;;
12986;SDS011;58897;51.960;5.582;2022-08-01T04:58:40;7.43;;;4.90;;
12986;SDS011;58897;51.960;5.582;2022-08-01T05:01:07;9.40;;;5.00;;
12986;SDS011;58897;51.960;5.582;2022-08-01T05:03:34;9.07;;;4.67;;
12986;SDS011;58897;51.960;5.582;2022-08-01T05:06:04;7.83;;;4.53;;
12986;SDS011;58897;51.960;5.582;2022-08-01T05:08:30;8.27;;;4.23;;
12986;SDS011;58897;51.960;5.582;2022-08-01T05:10:57;8.70;;;4.93;;
12986;SDS011;58897;51.960;5.582;2022-08-01T05:13:23;7.13;;;4.50;;
12986;SDS011;58897;51.960;5.582;2022-08-01T05:15:50;7.67;;;4.00;;
12986;SDS011;58897;51.960;5.582;2022-08-01T05:18:18;6.70;;;4.00;;
12986;SDS011;58897;51.960;5.582;2022-08-01T05:20:53;6.57;;;3.70;;
12986;SDS011;58897;51.960;5.582;2022-08-01T05:23:20;5.67;;;3.50;;
12986;SDS011;58897;51.960;5.582;2022-08-01T05:26:06;7.40;;;4.57;;
12986;SDS011;58897;51.960;5.582;2022-08-01T05:28:34;6.90;;;3.93;;
12986;SDS011;58897;51.960;5.582;2022-08-01T05:31:01;6.27;;;3.83;;
12986;SDS011;58897;51.960;5.582;2022-08-01T05:33:27;5.20;;;3.60;;
12986;SDS011;58897;51.960;5.582;2022-08-01T05:35:53;6.37;;;3.80;;
12986;SDS011;58897;51.960;5.582;2022-08-01T05:38:20;5.07;;;3.40;;
12986;SDS011;58897;51.960;5.582;2022-08-01T05:40:46;4.53;;;3.33;;
12986;SDS011;58897;51.960;5.582;2022-08-01T05:43:13;5.87;;;3.43;;
12986;SDS011;58897;51.960;5.582;2022-08-01T05:45:39;4.37;;;3.00;;
12986;SDS011;58897;51.960;5.582;2022-08-01T05:48:07;6.40;;;3.90;;
12986;SDS011;58897;51.960;5.582;2022-08-01T05:50:34;5.03;;;3.10;;
12986;SDS011;58897;51.960;5.582;2022-08-01T05:53:00;6.27;;;3.33;;
12986;SDS011;58897;51.960;5.582;2022-08-01T05:55:27;4.53;;;2.50;;
12986;SDS011;58897;51.960;5.582;2022-08-01T05:57:53;5.03;;;2.33;;
12986;SDS011;58897;51.960;5.582;2022-08-01T06:00:20;4.57;;;2.27;;
12986;SDS011;58897;51.960;5.582;2022-08-01T06:02:47;3.03;;;1.73;;
12986;SDS011;58897;51.960;5.582;2022-08-01T06:05:13;3.23;;;1.70;;
12986;SDS011;58897;51.960;5.582;2022-08-01T06:07:40;3.90;;;2.40;;
12986;SDS011;58897;51.960;5.582;2022-08-01T06:10:07;5.77;;;2.50;;
12986;SDS011;58897;51.960;5.582;2022-08-01T06:12:35;3.50;;;2.17;;
12986;SDS011;58897;51.960;5.582;2022-08-01T06:15:03;3.27;;;1.77;;
12986;SDS011;58897;51.960;5.582;2022-08-01T06:17:30;4.23;;;2.00;;
12986;SDS011;58897;51.960;5.582;2022-08-01T06:19:56;3.47;;;1.80;;
12986;SDS011;58897;51.960;5.582;2022-08-01T06:22:23;2.80;;;2.00;;
12986;SDS011;58897;51.960;5.582;2022-08-01T06:24:50;5.43;;;2.03;;
12986;SDS011;58897;51.960;5.582;2022-08-01T06:27:17;3.73;;;2.07;;
12986;SDS011;58897;51.960;5.582;2022-08-01T06:29:47;4.57;;;2.70;;
12986;SDS011;58897;51.960;5.582;2022-08-01T06:32:19;3.57;;;2.20;;
12986;SDS011;58897;51.960;5.582;2022-08-01T06:34:52;2.90;;;1.80;;
12986;SDS011;58897;51.960;5.582;2022-08-01T06:37:20;3.20;;;2.03;;
12986;SDS011;58897;51.960;5.582;2022-08-01T06:39:47;2.77;;;1.80;;
12986;SDS011;58897;51.960;5.582;2022-08-01T06:42:15;2.07;;;1.50;;
12986;SDS011;58897;51.960;5.582;2022-08-01T06:44:42;4.53;;;2.23;;
12986;SDS011;58897;51.960;5.582;2022-08-01T06:47:09;3.27;;;2.07;;
12986;SDS011;58897;51.960;5.582;2022-08-01T06:49:35;5.93;;;2.93;;
12986;SDS011;58897;51.960;5.582;2022-08-01T06:52:02;4.73;;;2.53;;
12986;SDS011;58897;51.960;5.582;2022-08-01T06:54:30;2.97;;;1.70;;
12986;SDS011;58897;51.960;5.582;2022-08-01T06:56:56;3.60;;;1.50;;
12986;SDS011;58897;51.960;5.582;2022-08-01T06:59:23;2.73;;;1.97;;
12986;SDS011;58897;51.960;5.582;2022-08-01T07:01:49;2.90;;;2.00;;
12986;SDS011;58897;51.960;5.582;2022-08-01T07:04:16;2.63;;;2.00;;
12986;SDS011;58897;51.960;5.582;2022-08-01T07:06:42;3.60;;;2.23;;
12986;SDS011;58897;51.960;5.582;2022-08-01T07:09:09;5.27;;;2.93;;
12986;SDS011;58897;51.960;5.582;2022-08-01T07:11:39;3.50;;;2.00;;
12986;SDS011;58897;51.960;5.582;2022-08-01T07:14:06;2.87;;;2.20;;
12986;SDS011;58897;51.960;5.582;2022-08-01T07:16:33;3.27;;;2.10;;
12986;SDS011;58897;51.960;5.582;2022-08-01T07:18:59;3.50;;;2.30;;
12986;SDS011;58897;51.960;5.582;2022-08-01T07:21:26;3.17;;;1.70;;
12986;SDS011;58897;51.960;5.582;2022-08-01T07:24:06;3.73;;;1.77;;
12986;SDS011;58897;51.960;5.582;2022-08-01T07:26:43;3.17;;;2.10;;
12986;SDS011;58897;51.960;5.582;2022-08-01T07:29:20;3.80;;;2.10;;
12986;SDS011;58897;51.960;5.582;2022-08-01T07:31:47;7.57;;;2.23;;
12986;SDS011;58897;51.960;5.582;2022-08-01T07:34:14;3.67;;;2.37;;
12986;SDS011;58897;51.960;5.582;2022-08-01T07:36:40;6.00;;;2.10;;
12986;SDS011;58897;51.960;5.582;2022-08-01T07:39:07;4.23;;;2.13;;
12986;SDS011;58897;51.960;5.582;2022-08-01T07:41:33;3.77;;;2.30;;
12986;SDS011;58897;51.960;5.582;2022-08-01T07:44:20;3.97;;;2.60;;
12986;SDS011;58897;51.960;5.582;2022-08-01T07:46:46;4.37;;;2.57;;
12986;SDS011;58897;51.960;5.582;2022-08-01T07:49:13;2.73;;;2.10;;
12986;SDS011;58897;51.960;5.582;2022-08-01T07:51:39;3.07;;;2.40;;
12986;SDS011;58897;51.960;5.582;2022-08-01T07:54:06;4.73;;;2.70;;
12986;SDS011;58897;51.960;5.582;2022-08-01T07:56:33;3.80;;;2.57;;
12986;SDS011;58897;51.960;5.582;2022-08-01T07:59:00;4.83;;;3.00;;
12986;SDS011;58897;51.960;5.582;2022-08-01T08:01:26;4.73;;;2.50;;
12986;SDS011;58897;51.960;5.582;2022-08-01T08:03:53;4.03;;;2.50;;
12986;SDS011;58897;51.960;5.582;2022-08-01T08:06:20;3.60;;;2.30;;
12986;SDS011;58897;51.960;5.582;2022-08-01T08:08:46;3.27;;;2.50;;
12986;SDS011;58897;51.960;5.582;2022-08-01T08:11:12;3.60;;;2.23;;
12986;SDS011;58897;51.960;5.582;2022-08-01T08:13:39;5.13;;;2.37;;
12986;SDS011;58897;51.960;5.582;2022-08-01T08:16:05;2.67;;;2.27;;
12986;SDS011;58897;51.960;5.582;2022-08-01T08:18:32;5.00;;;2.70;;
12986;SDS011;58897;51.960;5.582;2022-08-01T08:20:58;5.77;;;3.03;;
12986;SDS011;58897;51.960;5.582;2022-08-01T08:23:31;5.13;;;3.43;;
12986;SDS011;58897;51.960;5.582;2022-08-01T08:26:16;3.37;;;2.43;;
12986;SDS011;58897;51.960;5.582;2022-08-01T08:28:42;4.40;;;2.63;;
12986;SDS011;58897;51.960;5.582;2022-08-01T08:31:09;2.80;;;2.10;;
12986;SDS011;58897;51.960;5.582;2022-08-01T08:33:51;3.80;;;2.47;;
12986;SDS011;58897;51.960;5.582;2022-08-01T08:36:17;4.10;;;2.67;;
12986;SDS011;58897;51.960;5.582;2022-08-01T08:38:44;2.73;;;2.20;;
12986;SDS011;58897;51.960;5.582;2022-08-01T08:41:11;3.80;;;2.37;;
12986;SDS011;58897;51.960;5.582;2022-08-01T08:43:41;3.93;;;2.63;;
12986;SDS011;58897;51.960;5.582;2022-08-01T08:46:07;3.37;;;2.20;;
12986;SDS011;58897;51.960;5.582;2022-08-01T08:48:35;5.00;;;2.50;;
12986;SDS011;58897;51.960;5.582;2022-08-01T08:51:03;5.77;;;2.97;;
12986;SDS011;58897;51.960;5.582;2022-08-01T08:53:30;4.50;;;2.83;;
12986;SDS011;58897;51.960;5.582;2022-08-01T08:56:00;4.80;;;2.93;;
12986;SDS011;58897;51.960;5.582;2022-08-01T08:58:28;6.10;;;3.50;;
12986;SDS011;58897;51.960;5.582;2022-08-01T09:01:00;4.67;;;3.00;;
12986;SDS011;58897;51.960;5.582;2022-08-01T09:03:26;3.87;;;2.83;;
12986;SDS011;58897;51.960;5.582;2022-08-01T09:05:53;3.40;;;2.90;;
12986;SDS011;58897;51.960;5.582;2022-08-01T09:08:19;3.80;;;3.03;;
12986;SDS011;58897;51.960;5.582;2022-08-01T09:10:46;4.20;;;2.73;;
12986;SDS011;58897;51.960;5.582;2022-08-01T09:13:13;5.83;;;2.90;;
12986;SDS011;58897;51.960;5.582;2022-08-01T09:15:48;3.63;;;2.87;;
12986;SDS011;58897;51.960;5.582;2022-08-01T09:21:19;3.63;;;2.80;;
12986;SDS011;58897;51.960;5.582;2022-08-01T09:23:50;4.83;;;2.80;;
12986;SDS011;58897;51.960;5.582;2022-08-01T09:26:34;4.63;;;2.83;;
12986;SDS011;58897;51.960;5.582;2022-08-01T09:29:04;6.03;;;3.43;;
12986;SDS011;58897;51.960;5.582;2022-08-01T09:31:42;6.87;;;3.47;;
12986;SDS011;58897;51.960;5.582;2022-08-01T09:34:13;6.83;;;3.73;;
12986;SDS011;58897;51.960;5.582;2022-08-01T09:39:20;6.93;;;4.07;;
12986;SDS011;58897;51.960;5.582;2022-08-01T09:41:47;6.13;;;3.97;;
12986;SDS011;58897;51.960;5.582;2022-08-01T09:44:14;6.80;;;3.63;;
12986;SDS011;58897;51.960;5.582;2022-08-01T09:46:56;8.27;;;3.67;;
12986;SDS011;58897;51.960;5.582;2022-08-01T09:49:26;8.17;;;4.10;;
12986;SDS011;58897;51.960;5.582;2022-08-01T09:52:18;11.13;;;4.27;;
12986;SDS011;58897;51.960;5.582;2022-08-01T09:54:52;8.93;;;4.77;;
12986;SDS011;58897;51.960;5.582;2022-08-01T09:57:20;9.67;;;3.97;;
12986;SDS011;58897;51.960;5.582;2022-08-01T09:59:48;9.87;;;4.63;;
12986;SDS011;58897;51.960;5.582;2022-08-01T10:02:29;7.90;;;4.50;;
12986;SDS011;58897;51.960;5.582;2022-08-01T10:04:59;8.93;;;3.73;;
12986;SDS011;58897;51.960;5.582;2022-08-01T10:07:34;13.50;;;4.87;;
12986;SDS011;58897;51.960;5.582;2022-08-01T10:10:10;6.33;;;3.97;;
12986;SDS011;58897;51.960;5.582;2022-08-01T10:12:40;7.57;;;4.37;;
12986;SDS011;58897;51.960;5.582;2022-08-01T10:16:59;9.63;;;4.43;;
12986;SDS011;58897;51.960;5.582;2022-08-01T10:19:30;10.03;;;4.07;;
12986;SDS011;58897;51.960;5.582;2022-08-01T10:21:58;7.67;;;4.17;;
12986;SDS011;58897;51.960;5.582;2022-08-01T10:24:27;7.13;;;3.73;;
12986;SDS011;58897;51.960;5.582;2022-08-01T10:26:57;6.87;;;3.27;;
12986;SDS011;58897;51.960;5.582;2022-08-01T10:29:56;10.53;;;4.17;;
12986;SDS011;58897;51.960;5.582;2022-08-01T10:32:34;7.93;;;3.13;;
12986;SDS011;58897;51.960;5.582;2022-08-01T10:35:05;10.87;;;4.50;;
12986;SDS011;58897;51.960;5.582;2022-08-01T10:37:41;7.83;;;4.47;;
12986;SDS011;58897;51.960;5.582;2022-08-01T10:40:17;12.43;;;4.47;;
12986;SDS011;58897;51.960;5.582;2022-08-01T10:43:00;10.70;;;4.10;;
12986;SDS011;58897;51.960;5.582;2022-08-01T10:45:27;9.47;;;4.20;;
12986;SDS011;58897;51.960;5.582;2022-08-01T10:50:42;10.20;;;4.70;;
12986;SDS011;58897;51.960;5.582;2022-08-01T10:53:18;10.40;;;4.33;;
12986;SDS011;58897;51.960;5.582;2022-08-01T10:58:43;8.20;;;4.63;;
12986;SDS011;58897;51.960;5.582;2022-08-01T11:01:17;8.60;;;4.00;;
12986;SDS011;58897;51.960;5.582;2022-08-01T11:06:48;6.37;;;4.07;;
12986;SDS011;58897;51.960;5.582;2022-08-01T11:09:42;9.03;;;3.57;;
12986;SDS011;58897;51.960;5.582;2022-08-01T11:12:17;9.30;;;3.20;;
12986;SDS011;58897;51.960;5.582;2022-08-01T11:17:37;8.07;;;5.00;;
12986;SDS011;58897;51.960;5.582;2022-08-01T11:20:23;8.23;;;3.40;;
12986;SDS011;58897;51.960;5.582;2022-08-01T11:28:33;6.50;;;3.43;;
12986;SDS011;58897;51.960;5.582;2022-08-01T11:41:14;6.50;;;2.20;;
12986;SDS011;58897;51.960;5.582;2022-08-01T11:49:25;3.67;;;2.50;;
12986;SDS011;58897;51.960;5.582;2022-08-01T11:52:11;5.00;;;2.73;;
12986;SDS011;58897;51.960;5.582;2022-08-01T11:57:12;7.57;;;2.30;;
12986;SDS011;58897;51.960;5.582;2022-08-01T11:59:45;6.13;;;2.87;;
12986;SDS011;58897;51.960;5.582;2022-08-01T12:02:32;6.60;;;2.37;;
12986;SDS011;58897;51.960;5.582;2022-08-01T12:05:02;5.07;;;2.07;;
12986;SDS011;58897;51.960;5.582;2022-08-01T12:07:37;5.10;;;2.17;;
12986;SDS011;58897;51.960;5.582;2022-08-01T12:12:33;5.90;;;2.07;;
12986;SDS011;58897;51.960;5.582;2022-08-01T12:15:05;4.53;;;2.00;;
12986;SDS011;58897;51.960;5.582;2022-08-01T12:20:03;3.93;;;2.10;;
12986;SDS011;58897;51.960;5.582;2022-08-01T12:22:32;4.97;;;2.20;;
12986;SDS011;58897;51.960;5.582;2022-08-01T12:25:04;6.33;;;2.10;;
12986;SDS011;58897;51.960;5.582;2022-08-01T12:27:36;3.93;;;2.10;;
12986;SDS011;58897;51.960;5.582;2022-08-01T12:30:07;4.00;;;2.10;;
12986;SDS011;58897;51.960;5.582;2022-08-01T12:32:42;4.50;;;1.90;;
12986;SDS011;58897;51.960;5.582;2022-08-01T12:35:12;3.20;;;2.07;;
12986;SDS011;58897;51.960;5.582;2022-08-01T12:37:44;3.67;;;2.23;;
12986;SDS011;58897;51.960;5.582;2022-08-01T12:42:53;4.87;;;2.40;;
12986;SDS011;58897;51.960;5.582;2022-08-01T12:45:24;4.57;;;2.30;;
12986;SDS011;58897;51.960;5.582;2022-08-01T12:47:52;4.60;;;2.40;;
12986;SDS011;58897;51.960;5.582;2022-08-01T12:50:22;8.40;;;3.07;;
12986;SDS011;58897;51.960;5.582;2022-08-01T12:52:51;9.40;;;2.47;;
12986;SDS011;58897;51.960;5.582;2022-08-01T12:55:19;6.47;;;2.23;;
12986;SDS011;58897;51.960;5.582;2022-08-01T12:57:47;5.30;;;2.77;;
12986;SDS011;58897;51.960;5.582;2022-08-01T13:00:22;6.20;;;2.37;;
12986;SDS011;58897;51.960;5.582;2022-08-01T13:03:01;7.23;;;2.30;;
12986;SDS011;58897;51.960;5.582;2022-08-01T13:08:12;6.07;;;2.20;;
12986;SDS011;58897;51.960;5.582;2022-08-01T13:10:40;4.03;;;1.97;;
12986;SDS011;58897;51.960;5.582;2022-08-01T13:13:07;6.47;;;2.57;;
12986;SDS011;58897;51.960;5.582;2022-08-01T13:15:36;7.03;;;2.10;;
12986;SDS011;58897;51.960;5.582;2022-08-01T13:18:26;5.03;;;1.83;;
12986;SDS011;58897;51.960;5.582;2022-08-01T13:21:09;3.77;;;2.20;;
12986;SDS011;58897;51.960;5.582;2022-08-01T13:23:37;2.90;;;1.83;;
12986;SDS011;58897;51.960;5.582;2022-08-01T13:29:20;2.30;;;1.80;;
12986;SDS011;58897;51.960;5.582;2022-08-01T13:31:48;2.07;;;1.07;;
12986;SDS011;58897;51.960;5.582;2022-08-01T13:34:15;2.20;;;1.70;;
12986;SDS011;58897;51.960;5.582;2022-08-01T13:36:42;3.20;;;1.40;;
12986;SDS011;58897;51.960;5.582;2022-08-01T13:39:15;7.57;;;5.93;;
12986;SDS011;58897;51.960;5.582;2022-08-01T13:42:00;6.87;;;3.03;;
12986;SDS011;58897;51.960;5.582;2022-08-01T13:44:26;3.60;;;1.73;;
12986;SDS011;58897;51.960;5.582;2022-08-01T13:46:53;2.77;;;1.67;;
12986;SDS011;58897;51.960;5.582;2022-08-01T13:49:20;4.17;;;1.83;;
12986;SDS011;58897;51.960;5.582;2022-08-01T13:51:48;2.80;;;1.30;;
12986;SDS011;58897;51.960;5.582;2022-08-01T13:54:16;2.77;;;1.23;;
12986;SDS011;58897;51.960;5.582;2022-08-01T13:56:43;3.23;;;1.47;;
12986;SDS011;58897;51.960;5.582;2022-08-01T13:59:10;1.00;;;0.80;;
12986;SDS011;58897;51.960;5.582;2022-08-01T14:01:36;2.33;;;1.40;;
12986;SDS011;58897;51.960;5.582;2022-08-01T14:04:03;2.40;;;1.60;;
12986;SDS011;58897;51.960;5.582;2022-08-01T14:06:30;2.43;;;1.37;;
12986;SDS011;58897;51.960;5.582;2022-08-01T14:08:57;1.67;;;1.20;;
12986;SDS011;58897;51.960;5.582;2022-08-01T14:11:26;3.13;;;1.17;;
12986;SDS011;58897;51.960;5.582;2022-08-01T14:14:02;1.60;;;1.27;;
12986;SDS011;58897;51.960;5.582;2022-08-01T14:16:29;3.33;;;1.73;;
12986;SDS011;58897;51.960;5.582;2022-08-01T14:18:56;2.03;;;1.20;;
12986;SDS011;58897;51.960;5.582;2022-08-01T14:21:22;2.50;;;1.57;;
12986;SDS011;58897;51.960;5.582;2022-08-01T14:23:49;1.83;;;1.13;;
12986;SDS011;58897;51.960;5.582;2022-08-01T14:26:15;1.70;;;1.00;;
12986;SDS011;58897;51.960;5.582;2022-08-01T14:28:42;3.87;;;1.17;;
12986;SDS011;58897;51.960;5.582;2022-08-01T14:31:08;3.73;;;1.10;;
12986;SDS011;58897;51.960;5.582;2022-08-01T14:33:35;1.53;;;1.17;;
12986;SDS011;58897;51.960;5.582;2022-08-01T14:36:02;1.73;;;1.37;;
12986;SDS011;58897;51.960;5.582;2022-08-01T14:38:49;3.50;;;1.77;;
12986;SDS011;58897;51.960;5.582;2022-08-01T14:41:15;2.90;;;1.80;;
12986;SDS011;58897;51.960;5.582;2022-08-01T14:43:42;2.83;;;1.30;;
12986;SDS011;58897;51.960;5.582;2022-08-01T14:46:08;2.23;;;1.10;;
12986;SDS011;58897;51.960;5.582;2022-08-01T14:48:36;2.03;;;1.40;;
12986;SDS011;58897;51.960;5.582;2022-08-01T14:51:02;2.77;;;1.50;;
12986;SDS011;58897;51.960;5.582;2022-08-01T14:53:30;3.17;;;1.47;;
12986;SDS011;58897;51.960;5.582;2022-08-01T14:55:59;1.80;;;1.23;;
12986;SDS011;58897;51.960;5.582;2022-08-01T14:58:25;4.40;;;1.80;;
12986;SDS011;58897;51.960;5.582;2022-08-01T15:00:52;2.03;;;1.53;;
12986;SDS011;58897;51.960;5.582;2022-08-01T15:03:24;2.83;;;1.30;;
12986;SDS011;58897;51.960;5.582;2022-08-01T15:05:50;2.10;;;1.27;;
12986;SDS011;58897;51.960;5.582;2022-08-01T15:08:17;2.27;;;1.37;;
12986;SDS011;58897;51.960;5.582;2022-08-01T15:10:43;2.93;;;1.40;;
12986;SDS011;58897;51.960;5.582;2022-08-01T15:13:09;2.73;;;1.40;;
12986;SDS011;58897;51.960;5.582;2022-08-01T15:15:36;4.17;;;1.17;;
12986;SDS011;58897;51.960;5.582;2022-08-01T15:18:02;3.17;;;1.30;;
12986;SDS011;58897;51.960;5.582;2022-08-01T15:20:29;1.93;;;1.57;;
12986;SDS011;58897;51.960;5.582;2022-08-01T15:22:56;1.90;;;1.43;;
12986;SDS011;58897;51.960;5.582;2022-08-01T15:25:22;3.43;;;1.17;;
12986;SDS011;58897;51.960;5.582;2022-08-01T15:27:49;2.73;;;1.67;;
12986;SDS011;58897;51.960;5.582;2022-08-01T15:30:15;2.53;;;1.30;;
12986;SDS011;58897;51.960;5.582;2022-08-01T15:32:48;3.43;;;1.40;;
12986;SDS011;58897;51.960;5.582;2022-08-01T15:35:16;2.77;;;1.30;;
12986;SDS011;58897;51.960;5.582;2022-08-01T15:37:42;2.20;;;1.27;;
12986;SDS011;58897;51.960;5.582;2022-08-01T15:40:09;2.63;;;1.13;;
12986;SDS011;58897;51.960;5.582;2022-08-01T15:42:37;3.50;;;1.13;;
12986;SDS011;58897;51.960;5.582;2022-08-01T15:45:04;3.90;;;1.20;;
12986;SDS011;58897;51.960;5.582;2022-08-01T15:47:38;1.90;;;1.07;;
12986;SDS011;58897;51.960;5.582;2022-08-01T15:50:04;2.23;;;0.90;;
12986;SDS011;58897;51.960;5.582;2022-08-01T15:52:31;2.10;;;1.30;;
12986;SDS011;58897;51.960;5.582;2022-08-01T15:54:58;3.97;;;1.50;;
12986;SDS011;58897;51.960;5.582;2022-08-01T15:57:24;2.87;;;1.10;;
12986;SDS011;58897;51.960;5.582;2022-08-01T15:59:51;2.93;;;1.60;;
12986;SDS011;58897;51.960;5.582;2022-08-01T16:02:17;1.67;;;1.10;;
12986;SDS011;58897;51.960;5.582;2022-08-01T16:04:44;2.27;;;1.20;;
12986;SDS011;58897;51.960;5.582;2022-08-01T16:07:10;2.90;;;1.17;;
12986;SDS011;58897;51.960;5.582;2022-08-01T16:09:37;1.33;;;0.83;;
12986;SDS011;58897;51.960;5.582;2022-08-01T16:12:03;2.63;;;1.20;;